sensor_id;sensor_type;location;lat;lon;timestamp;P1;durP1;ratioP1;P2;durP2;ratioP2
44272;SDS011;29964;17.182;-96.766;2023-04-25T00:01:20;10.57;;;4.57;;
44272;SDS011;29964;17.182;-96.766;2023-04-25T00:03:49;5.13;;;3.47;;
44272;SDS011;29964;17.182;-96.766;2023-04-25T00:06:16;4.87;;;3.17;;
44272;SDS011;29964;17.182;-96.766;2023-04-25T00:08:43;10.47;;;3.13;;
44272;SDS011;29964;17.182;-96.766;2023-04-25T00:11:10;6.13;;;3.23;;
44272;SDS011;29964;17.182;-96.766;2023-04-25T00:13:37;4.63;;;3.30;;
44272;SDS011;29964;17.182;-96.766;2023-04-25T00:16:06;5.93;;;3.30;;
44272;SDS011;29964;17.182;-96.766;2023-04-25T00:18:33;4.53;;;3.13;;
44272;SDS011;29964;17.182;-96.766;2023-04-25T00:21:00;5.43;;;3.10;;
44272;SDS011;29964;17.182;-96.766;2023-04-25T00:23:27;5.67;;;3.60;;
44272;SDS011;29964;17.182;-96.766;2023-04-25T00:25:55;4.70;;;3.27;;
44272;SDS011;29964;17.182;-96.766;2023-04-25T00:28:21;4.80;;;3.00;;
44272;SDS011;29964;17.182;-96.766;2023-04-25T00:30:48;4.80;;;3.43;;
44272;SDS011;29964;17.182;-96.766;2023-04-25T00:33:15;6.77;;;3.03;;
44272;SDS011;29964;17.182;-96.766;2023-04-25T00:35:42;3.03;;;2.43;;
44272;SDS011;29964;17.182;-96.766;2023-04-25T00:38:11;4.93;;;2.90;;
44272;SDS011;29964;17.182;-96.766;2023-04-25T00:40:38;6.00;;;3.40;;
44272;SDS011;29964;17.182;-96.766;2023-04-25T00:43:04;5.07;;;3.70;;
44272;SDS011;29964;17.182;-96.766;2023-04-25T00:45:31;5.50;;;3.00;;
44272;SDS011;29964;17.182;-96.766;2023-04-25T00:47:58;8.50;;;3.27;;
44272;SDS011;29964;17.182;-96.766;2023-04-25T00:50:25;10.30;;;3.20;;
44272;SDS011;29964;17.182;-96.766;2023-04-25T00:52:51;4.63;;;3.53;;
44272;SDS011;29964;17.182;-96.766;2023-04-25T00:55:18;2.93;;;2.17;;
44272;SDS011;29964;17.182;-96.766;2023-04-25T00:57:46;6.07;;;3.13;;
44272;SDS011;29964;17.182;-96.766;2023-04-25T01:00:13;4.03;;;2.57;;
44272;SDS011;29964;17.182;-96.766;2023-04-25T01:02:40;3.40;;;2.47;;
44272;SDS011;29964;17.182;-96.766;2023-04-25T01:05:07;3.70;;;2.60;;
44272;SDS011;29964;17.182;-96.766;2023-04-25T01:07:34;4.07;;;2.53;;
44272;SDS011;29964;17.182;-96.766;2023-04-25T01:10:01;2.67;;;2.00;;
44272;SDS011;29964;17.182;-96.766;2023-04-25T01:12:28;3.47;;;2.50;;
44272;SDS011;29964;17.182;-96.766;2023-04-25T01:14:55;4.43;;;2.80;;
44272;SDS011;29964;17.182;-96.766;2023-04-25T01:17:22;6.13;;;3.37;;
44272;SDS011;29964;17.182;-96.766;2023-04-25T01:19:49;3.80;;;2.27;;
44272;SDS011;29964;17.182;-96.766;2023-04-25T01:22:16;4.40;;;2.97;;
44272;SDS011;29964;17.182;-96.766;2023-04-25T01:24:43;8.97;;;3.13;;
44272;SDS011;29964;17.182;-96.766;2023-04-25T01:27:10;2.83;;;2.20;;
44272;SDS011;29964;17.182;-96.766;2023-04-25T01:29:37;5.63;;;2.77;;
44272;SDS011;29964;17.182;-96.766;2023-04-25T01:32:04;3.70;;;2.27;;
44272;SDS011;29964;17.182;-96.766;2023-04-25T01:34:31;4.93;;;2.10;;
44272;SDS011;29964;17.182;-96.766;2023-04-25T01:36:59;3.43;;;2.33;;
44272;SDS011;29964;17.182;-96.766;2023-04-25T01:39:27;2.07;;;1.63;;
44272;SDS011;29964;17.182;-96.766;2023-04-25T01:41:54;2.70;;;1.87;;
44272;SDS011;29964;17.182;-96.766;2023-04-25T01:44:20;4.67;;;2.30;;
44272;SDS011;29964;17.182;-96.766;2023-04-25T01:46:47;4.40;;;2.87;;
44272;SDS011;29964;17.182;-96.766;2023-04-25T01:49:14;3.30;;;2.30;;
44272;SDS011;29964;17.182;-96.766;2023-04-25T01:51:41;2.77;;;1.90;;
44272;SDS011;29964;17.182;-96.766;2023-04-25T01:54:08;3.70;;;2.57;;
44272;SDS011;29964;17.182;-96.766;2023-04-25T01:56:36;2.00;;;1.70;;
44272;SDS011;29964;17.182;-96.766;2023-04-25T01:59:03;4.20;;;2.77;;
44272;SDS011;29964;17.182;-96.766;2023-04-25T02:01:30;5.97;;;3.83;;
44272;SDS011;29964;17.182;-96.766;2023-04-25T02:03:57;13.47;;;3.20;;
44272;SDS011;29964;17.182;-96.766;2023-04-25T02:06:24;4.97;;;3.20;;
44272;SDS011;29964;17.182;-96.766;2023-04-25T02:08:51;6.13;;;3.83;;
44272;SDS011;29964;17.182;-96.766;2023-04-25T02:11:17;8.07;;;4.33;;
44272;SDS011;29964;17.182;-96.766;2023-04-25T02:13:44;11.23;;;4.63;;
44272;SDS011;29964;17.182;-96.766;2023-04-25T02:16:11;3.93;;;3.40;;
44272;SDS011;29964;17.182;-96.766;2023-04-25T02:18:38;5.30;;;3.87;;
44272;SDS011;29964;17.182;-96.766;2023-04-25T02:21:05;7.17;;;3.87;;
44272;SDS011;29964;17.182;-96.766;2023-04-25T02:23:32;8.83;;;4.50;;
44272;SDS011;29964;17.182;-96.766;2023-04-25T02:25:58;5.93;;;3.87;;
44272;SDS011;29964;17.182;-96.766;2023-04-25T02:28:25;4.43;;;3.63;;
44272;SDS011;29964;17.182;-96.766;2023-04-25T02:30:52;6.87;;;2.87;;
44272;SDS011;29964;17.182;-96.766;2023-04-25T02:33:19;11.97;;;4.80;;
44272;SDS011;29964;17.182;-96.766;2023-04-25T02:35:46;8.63;;;4.57;;
44272;SDS011;29964;17.182;-96.766;2023-04-25T02:38:13;5.33;;;4.07;;
44272;SDS011;29964;17.182;-96.766;2023-04-25T02:40:40;11.20;;;4.97;;
44272;SDS011;29964;17.182;-96.766;2023-04-25T02:43:07;8.80;;;3.67;;
44272;SDS011;29964;17.182;-96.766;2023-04-25T02:45:33;4.97;;;3.53;;
44272;SDS011;29964;17.182;-96.766;2023-04-25T02:48:01;5.43;;;4.00;;
44272;SDS011;29964;17.182;-96.766;2023-04-25T02:50:28;4.00;;;3.37;;
44272;SDS011;29964;17.182;-96.766;2023-04-25T02:52:54;6.23;;;3.77;;
44272;SDS011;29964;17.182;-96.766;2023-04-25T02:55:21;4.10;;;2.80;;
44272;SDS011;29964;17.182;-96.766;2023-04-25T02:57:48;4.00;;;3.10;;
44272;SDS011;29964;17.182;-96.766;2023-04-25T03:00:15;6.43;;;3.47;;
44272;SDS011;29964;17.182;-96.766;2023-04-25T03:02:42;5.33;;;3.37;;
44272;SDS011;29964;17.182;-96.766;2023-04-25T03:05:08;2.70;;;2.00;;
44272;SDS011;29964;17.182;-96.766;2023-04-25T03:07:35;3.43;;;2.47;;
44272;SDS011;29964;17.182;-96.766;2023-04-25T03:10:05;4.87;;;3.30;;
44272;SDS011;29964;17.182;-96.766;2023-04-25T03:12:32;6.63;;;4.00;;
44272;SDS011;29964;17.182;-96.766;2023-04-25T03:14:59;5.83;;;3.93;;
44272;SDS011;29964;17.182;-96.766;2023-04-25T03:17:26;6.37;;;3.90;;
44272;SDS011;29964;17.182;-96.766;2023-04-25T03:19:52;13.67;;;3.37;;
44272;SDS011;29964;17.182;-96.766;2023-04-25T03:22:19;4.43;;;2.60;;
44272;SDS011;29964;17.182;-96.766;2023-04-25T03:24:46;4.93;;;2.93;;
44272;SDS011;29964;17.182;-96.766;2023-04-25T03:27:13;10.63;;;3.87;;
44272;SDS011;29964;17.182;-96.766;2023-04-25T03:29:40;6.87;;;3.97;;
44272;SDS011;29964;17.182;-96.766;2023-04-25T03:32:06;14.73;;;4.27;;
44272;SDS011;29964;17.182;-96.766;2023-04-25T03:34:33;5.13;;;2.93;;
44272;SDS011;29964;17.182;-96.766;2023-04-25T03:37:03;28.43;;;3.43;;
44272;SDS011;29964;17.182;-96.766;2023-04-25T03:39:30;6.10;;;3.60;;
44272;SDS011;29964;17.182;-96.766;2023-04-25T03:41:57;4.20;;;3.03;;
44272;SDS011;29964;17.182;-96.766;2023-04-25T03:44:24;3.63;;;2.90;;
44272;SDS011;29964;17.182;-96.766;2023-04-25T03:46:51;10.47;;;3.80;;
44272;SDS011;29964;17.182;-96.766;2023-04-25T03:49:17;4.63;;;3.00;;
44272;SDS011;29964;17.182;-96.766;2023-04-25T03:51:44;4.97;;;3.03;;
44272;SDS011;29964;17.182;-96.766;2023-04-25T03:54:11;3.80;;;2.97;;
44272;SDS011;29964;17.182;-96.766;2023-04-25T03:56:38;4.77;;;3.70;;
44272;SDS011;29964;17.182;-96.766;2023-04-25T03:59:04;11.67;;;3.93;;
44272;SDS011;29964;17.182;-96.766;2023-04-25T04:01:31;7.10;;;4.57;;
44272;SDS011;29964;17.182;-96.766;2023-04-25T04:03:58;6.13;;;3.53;;
44272;SDS011;29964;17.182;-96.766;2023-04-25T04:06:25;7.67;;;5.20;;
44272;SDS011;29964;17.182;-96.766;2023-04-25T04:08:52;7.67;;;4.90;;
44272;SDS011;29964;17.182;-96.766;2023-04-25T04:11:18;7.63;;;4.63;;
44272;SDS011;29964;17.182;-96.766;2023-04-25T04:13:45;6.27;;;3.87;;
44272;SDS011;29964;17.182;-96.766;2023-04-25T04:16:12;5.50;;;3.47;;
44272;SDS011;29964;17.182;-96.766;2023-04-25T04:18:39;5.00;;;3.63;;
44272;SDS011;29964;17.182;-96.766;2023-04-25T04:21:06;4.17;;;3.13;;
44272;SDS011;29964;17.182;-96.766;2023-04-25T04:23:32;5.23;;;3.73;;
44272;SDS011;29964;17.182;-96.766;2023-04-25T04:25:59;4.27;;;3.30;;
44272;SDS011;29964;17.182;-96.766;2023-04-25T04:28:26;4.70;;;3.30;;
44272;SDS011;29964;17.182;-96.766;2023-04-25T04:30:53;6.13;;;4.30;;
44272;SDS011;29964;17.182;-96.766;2023-04-25T04:33:20;4.70;;;3.37;;
44272;SDS011;29964;17.182;-96.766;2023-04-25T04:35:49;4.73;;;3.50;;
44272;SDS011;29964;17.182;-96.766;2023-04-25T04:38:17;4.97;;;3.90;;
44272;SDS011;29964;17.182;-96.766;2023-04-25T04:40:45;5.27;;;4.30;;
44272;SDS011;29964;17.182;-96.766;2023-04-25T04:43:13;5.90;;;4.20;;
44272;SDS011;29964;17.182;-96.766;2023-04-25T04:45:42;5.60;;;3.77;;
44272;SDS011;29964;17.182;-96.766;2023-04-25T04:48:09;7.40;;;4.27;;
44272;SDS011;29964;17.182;-96.766;2023-04-25T04:50:39;5.43;;;3.93;;
44272;SDS011;29964;17.182;-96.766;2023-04-25T04:53:06;5.00;;;3.50;;
44272;SDS011;29964;17.182;-96.766;2023-04-25T04:55:36;12.50;;;4.40;;
44272;SDS011;29964;17.182;-96.766;2023-04-25T04:58:03;6.43;;;3.70;;
44272;SDS011;29964;17.182;-96.766;2023-04-25T05:00:30;6.57;;;3.97;;
44272;SDS011;29964;17.182;-96.766;2023-04-25T05:02:57;5.83;;;4.10;;
44272;SDS011;29964;17.182;-96.766;2023-04-25T05:05:24;6.37;;;4.13;;
44272;SDS011;29964;17.182;-96.766;2023-04-25T05:07:51;6.17;;;3.93;;
44272;SDS011;29964;17.182;-96.766;2023-04-25T05:10:18;5.20;;;3.37;;
44272;SDS011;29964;17.182;-96.766;2023-04-25T05:12:45;4.40;;;2.63;;
44272;SDS011;29964;17.182;-96.766;2023-04-25T05:15:13;6.47;;;4.13;;
44272;SDS011;29964;17.182;-96.766;2023-04-25T05:17:40;9.30;;;4.27;;
44272;SDS011;29964;17.182;-96.766;2023-04-25T05:20:07;7.17;;;4.63;;
44272;SDS011;29964;17.182;-96.766;2023-04-25T05:22:37;7.07;;;4.10;;
44272;SDS011;29964;17.182;-96.766;2023-04-25T05:25:04;7.80;;;4.40;;
44272;SDS011;29964;17.182;-96.766;2023-04-25T05:27:30;7.17;;;5.40;;
44272;SDS011;29964;17.182;-96.766;2023-04-25T05:29:57;7.47;;;4.33;;
44272;SDS011;29964;17.182;-96.766;2023-04-25T05:32:24;8.83;;;4.73;;
44272;SDS011;29964;17.182;-96.766;2023-04-25T05:34:51;3.90;;;2.90;;
44272;SDS011;29964;17.182;-96.766;2023-04-25T05:37:17;8.93;;;3.43;;
44272;SDS011;29964;17.182;-96.766;2023-04-25T05:39:44;14.40;;;5.17;;
44272;SDS011;29964;17.182;-96.766;2023-04-25T05:42:11;3.43;;;2.50;;
44272;SDS011;29964;17.182;-96.766;2023-04-25T05:44:38;4.03;;;3.10;;
44272;SDS011;29964;17.182;-96.766;2023-04-25T05:47:05;7.10;;;4.00;;
44272;SDS011;29964;17.182;-96.766;2023-04-25T05:49:32;7.23;;;4.13;;
44272;SDS011;29964;17.182;-96.766;2023-04-25T05:51:58;3.10;;;2.50;;
44272;SDS011;29964;17.182;-96.766;2023-04-25T05:54:25;9.33;;;4.50;;
44272;SDS011;29964;17.182;-96.766;2023-04-25T05:56:52;5.37;;;3.53;;
44272;SDS011;29964;17.182;-96.766;2023-04-25T05:59:19;4.70;;;3.57;;
44272;SDS011;29964;17.182;-96.766;2023-04-25T06:01:45;6.20;;;4.43;;
44272;SDS011;29964;17.182;-96.766;2023-04-25T06:04:12;6.37;;;3.77;;
44272;SDS011;29964;17.182;-96.766;2023-04-25T06:06:39;9.23;;;4.37;;
44272;SDS011;29964;17.182;-96.766;2023-04-25T06:09:06;7.17;;;4.50;;
44272;SDS011;29964;17.182;-96.766;2023-04-25T06:11:32;7.00;;;4.57;;
44272;SDS011;29964;17.182;-96.766;2023-04-25T06:13:59;8.33;;;4.73;;
44272;SDS011;29964;17.182;-96.766;2023-04-25T06:16:26;2.90;;;2.53;;
44272;SDS011;29964;17.182;-96.766;2023-04-25T06:18:53;5.27;;;4.40;;
44272;SDS011;29964;17.182;-96.766;2023-04-25T06:21:20;3.03;;;2.33;;
44272;SDS011;29964;17.182;-96.766;2023-04-25T06:23:46;6.30;;;4.23;;
44272;SDS011;29964;17.182;-96.766;2023-04-25T06:26:13;4.10;;;3.00;;
44272;SDS011;29964;17.182;-96.766;2023-04-25T06:28:40;7.30;;;3.80;;
44272;SDS011;29964;17.182;-96.766;2023-04-25T06:31:07;6.07;;;4.20;;
44272;SDS011;29964;17.182;-96.766;2023-04-25T06:33:33;7.90;;;3.80;;
44272;SDS011;29964;17.182;-96.766;2023-04-25T06:36:00;5.97;;;4.27;;
44272;SDS011;29964;17.182;-96.766;2023-04-25T06:38:27;5.27;;;3.70;;
44272;SDS011;29964;17.182;-96.766;2023-04-25T06:40:54;6.77;;;4.40;;
44272;SDS011;29964;17.182;-96.766;2023-04-25T06:43:20;11.33;;;3.67;;
44272;SDS011;29964;17.182;-96.766;2023-04-25T06:45:47;6.27;;;4.73;;
44272;SDS011;29964;17.182;-96.766;2023-04-25T06:48:14;4.63;;;3.57;;
44272;SDS011;29964;17.182;-96.766;2023-04-25T06:50:41;6.60;;;4.53;;
44272;SDS011;29964;17.182;-96.766;2023-04-25T06:53:07;6.30;;;4.27;;
44272;SDS011;29964;17.182;-96.766;2023-04-25T06:55:34;3.97;;;3.37;;
44272;SDS011;29964;17.182;-96.766;2023-04-25T06:58:01;4.50;;;3.30;;
44272;SDS011;29964;17.182;-96.766;2023-04-25T07:00:28;6.30;;;3.70;;
44272;SDS011;29964;17.182;-96.766;2023-04-25T07:02:55;5.87;;;4.00;;
44272;SDS011;29964;17.182;-96.766;2023-04-25T07:05:22;4.27;;;3.60;;
44272;SDS011;29964;17.182;-96.766;2023-04-25T07:07:49;4.37;;;3.40;;
44272;SDS011;29964;17.182;-96.766;2023-04-25T07:10:15;9.70;;;4.83;;
44272;SDS011;29964;17.182;-96.766;2023-04-25T07:12:42;8.63;;;4.90;;
44272;SDS011;29964;17.182;-96.766;2023-04-25T07:15:09;6.30;;;4.53;;
44272;SDS011;29964;17.182;-96.766;2023-04-25T07:17:37;5.77;;;4.30;;
44272;SDS011;29964;17.182;-96.766;2023-04-25T07:20:04;6.37;;;5.00;;
44272;SDS011;29964;17.182;-96.766;2023-04-25T07:22:31;6.17;;;5.07;;
44272;SDS011;29964;17.182;-96.766;2023-04-25T07:24:58;10.43;;;5.17;;
44272;SDS011;29964;17.182;-96.766;2023-04-25T07:27:25;8.53;;;4.70;;
44272;SDS011;29964;17.182;-96.766;2023-04-25T07:29:52;8.80;;;4.67;;
44272;SDS011;29964;17.182;-96.766;2023-04-25T07:32:19;5.37;;;4.13;;
44272;SDS011;29964;17.182;-96.766;2023-04-25T07:34:45;7.43;;;4.90;;
44272;SDS011;29964;17.182;-96.766;2023-04-25T07:37:12;5.57;;;4.03;;
44272;SDS011;29964;17.182;-96.766;2023-04-25T07:39:39;5.47;;;3.87;;
44272;SDS011;29964;17.182;-96.766;2023-04-25T07:42:07;16.57;;;3.50;;
44272;SDS011;29964;17.182;-96.766;2023-04-25T07:44:34;4.60;;;3.20;;
44272;SDS011;29964;17.182;-96.766;2023-04-25T07:47:08;4.73;;;3.30;;
44272;SDS011;29964;17.182;-96.766;2023-04-25T07:49:35;4.23;;;3.17;;
44272;SDS011;29964;17.182;-96.766;2023-04-25T07:52:02;4.73;;;3.83;;
44272;SDS011;29964;17.182;-96.766;2023-04-25T07:54:29;4.93;;;3.43;;
44272;SDS011;29964;17.182;-96.766;2023-04-25T07:56:56;3.77;;;2.27;;
44272;SDS011;29964;17.182;-96.766;2023-04-25T07:59:23;4.27;;;3.07;;
44272;SDS011;29964;17.182;-96.766;2023-04-25T08:01:50;11.10;;;3.83;;
44272;SDS011;29964;17.182;-96.766;2023-04-25T08:04:16;6.50;;;4.07;;
44272;SDS011;29964;17.182;-96.766;2023-04-25T08:06:43;4.97;;;3.73;;
44272;SDS011;29964;17.182;-96.766;2023-04-25T08:09:10;4.30;;;3.00;;
44272;SDS011;29964;17.182;-96.766;2023-04-25T08:11:37;31.00;;;3.73;;
44272;SDS011;29964;17.182;-96.766;2023-04-25T08:14:05;4.53;;;3.53;;
44272;SDS011;29964;17.182;-96.766;2023-04-25T08:16:31;4.37;;;3.40;;
44272;SDS011;29964;17.182;-96.766;2023-04-25T08:18:59;7.40;;;3.17;;
44272;SDS011;29964;17.182;-96.766;2023-04-25T08:21:26;3.43;;;2.80;;
44272;SDS011;29964;17.182;-96.766;2023-04-25T08:23:53;6.17;;;4.50;;
44272;SDS011;29964;17.182;-96.766;2023-04-25T08:26:19;4.03;;;3.23;;
44272;SDS011;29964;17.182;-96.766;2023-04-25T08:28:46;7.43;;;3.87;;
44272;SDS011;29964;17.182;-96.766;2023-04-25T08:31:13;8.60;;;4.37;;
44272;SDS011;29964;17.182;-96.766;2023-04-25T08:33:40;8.03;;;3.67;;
44272;SDS011;29964;17.182;-96.766;2023-04-25T08:36:07;6.23;;;4.63;;
44272;SDS011;29964;17.182;-96.766;2023-04-25T08:38:33;9.50;;;3.60;;
44272;SDS011;29964;17.182;-96.766;2023-04-25T08:41:01;5.83;;;4.30;;
44272;SDS011;29964;17.182;-96.766;2023-04-25T08:43:29;6.40;;;4.03;;
44272;SDS011;29964;17.182;-96.766;2023-04-25T08:45:59;5.27;;;3.77;;
44272;SDS011;29964;17.182;-96.766;2023-04-25T08:48:27;4.60;;;3.30;;
44272;SDS011;29964;17.182;-96.766;2023-04-25T08:50:54;4.83;;;3.33;;
44272;SDS011;29964;17.182;-96.766;2023-04-25T08:53:22;4.60;;;3.17;;
44272;SDS011;29964;17.182;-96.766;2023-04-25T08:55:52;5.83;;;4.23;;
44272;SDS011;29964;17.182;-96.766;2023-04-25T08:58:20;5.30;;;3.93;;
44272;SDS011;29964;17.182;-96.766;2023-04-25T09:00:47;3.87;;;3.20;;
44272;SDS011;29964;17.182;-96.766;2023-04-25T09:03:15;5.60;;;4.03;;
44272;SDS011;29964;17.182;-96.766;2023-04-25T09:05:42;8.10;;;4.73;;
44272;SDS011;29964;17.182;-96.766;2023-04-25T09:08:09;4.67;;;2.97;;
44272;SDS011;29964;17.182;-96.766;2023-04-25T09:10:36;3.93;;;3.13;;
44272;SDS011;29964;17.182;-96.766;2023-04-25T09:13:04;8.50;;;3.87;;
44272;SDS011;29964;17.182;-96.766;2023-04-25T09:15:31;7.43;;;4.53;;
44272;SDS011;29964;17.182;-96.766;2023-04-25T09:17:58;6.67;;;4.10;;
44272;SDS011;29964;17.182;-96.766;2023-04-25T09:20:25;3.97;;;3.17;;
44272;SDS011;29964;17.182;-96.766;2023-04-25T09:23:02;5.30;;;3.47;;
44272;SDS011;29964;17.182;-96.766;2023-04-25T09:25:33;5.67;;;4.40;;
44272;SDS011;29964;17.182;-96.766;2023-04-25T09:28:03;4.53;;;3.63;;
44272;SDS011;29964;17.182;-96.766;2023-04-25T09:30:34;5.47;;;3.57;;
44272;SDS011;29964;17.182;-96.766;2023-04-25T09:33:04;5.17;;;3.80;;
44272;SDS011;29964;17.182;-96.766;2023-04-25T09:35:37;6.60;;;3.63;;
44272;SDS011;29964;17.182;-96.766;2023-04-25T09:38:08;6.40;;;4.00;;
44272;SDS011;29964;17.182;-96.766;2023-04-25T09:40:38;7.87;;;4.70;;
44272;SDS011;29964;17.182;-96.766;2023-04-25T09:43:09;3.87;;;3.07;;
44272;SDS011;29964;17.182;-96.766;2023-04-25T09:45:42;6.33;;;3.47;;
44272;SDS011;29964;17.182;-96.766;2023-04-25T09:48:18;3.10;;;2.70;;
44272;SDS011;29964;17.182;-96.766;2023-04-25T09:53:31;8.27;;;5.15;;
44272;SDS011;29964;17.182;-96.766;2023-04-25T09:55:59;5.00;;;4.13;;
44272;SDS011;29964;17.182;-96.766;2023-04-25T09:58:26;5.73;;;3.57;;
44272;SDS011;29964;17.182;-96.766;2023-04-25T10:01:03;4.23;;;3.83;;
44272;SDS011;29964;17.182;-96.766;2023-04-25T10:03:30;4.22;;;3.58;;
44272;SDS011;29964;17.182;-96.766;2023-04-25T10:06:01;4.43;;;3.30;;
44272;SDS011;29964;17.182;-96.766;2023-04-25T10:08:32;7.80;;;4.00;;
44272;SDS011;29964;17.182;-96.766;2023-04-25T10:11:03;5.47;;;3.97;;
44272;SDS011;29964;17.182;-96.766;2023-04-25T10:13:30;5.40;;;4.60;;
44272;SDS011;29964;17.182;-96.766;2023-04-25T10:15:58;5.47;;;4.03;;
44272;SDS011;29964;17.182;-96.766;2023-04-25T10:18:26;3.70;;;3.03;;
44272;SDS011;29964;17.182;-96.766;2023-04-25T10:20:56;5.63;;;3.47;;
44272;SDS011;29964;17.182;-96.766;2023-04-25T10:23:23;4.57;;;2.87;;
44272;SDS011;29964;17.182;-96.766;2023-04-25T10:25:50;5.43;;;3.17;;
44272;SDS011;29964;17.182;-96.766;2023-04-25T10:28:18;4.73;;;3.37;;
44272;SDS011;29964;17.182;-96.766;2023-04-25T10:31:18;6.73;;;3.83;;
44272;SDS011;29964;17.182;-96.766;2023-04-25T10:33:38;4.97;;;3.57;;
44272;SDS011;29964;17.182;-96.766;2023-04-25T10:36:13;5.10;;;3.53;;
44272;SDS011;29964;17.182;-96.766;2023-04-25T10:38:44;5.63;;;3.43;;
44272;SDS011;29964;17.182;-96.766;2023-04-25T10:41:11;3.57;;;3.07;;
44272;SDS011;29964;17.182;-96.766;2023-04-25T10:43:42;9.73;;;4.50;;
44272;SDS011;29964;17.182;-96.766;2023-04-25T10:48:52;5.80;;;3.57;;
44272;SDS011;29964;17.182;-96.766;2023-04-25T10:51:23;9.67;;;4.07;;
44272;SDS011;29964;17.182;-96.766;2023-04-25T10:56:20;5.00;;;3.23;;
44272;SDS011;29964;17.182;-96.766;2023-04-25T10:58:47;8.87;;;5.03;;
44272;SDS011;29964;17.182;-96.766;2023-04-25T11:01:15;6.57;;;3.23;;
44272;SDS011;29964;17.182;-96.766;2023-04-25T11:03:42;5.43;;;4.50;;
44272;SDS011;29964;17.182;-96.766;2023-04-25T11:06:23;9.17;;;5.80;;
44272;SDS011;29964;17.182;-96.766;2023-04-25T11:08:50;5.70;;;4.57;;
44272;SDS011;29964;17.182;-96.766;2023-04-25T11:11:17;11.60;;;6.10;;
44272;SDS011;29964;17.182;-96.766;2023-04-25T11:13:47;10.53;;;4.13;;
44272;SDS011;29964;17.182;-96.766;2023-04-25T11:16:14;6.57;;;4.50;;
44272;SDS011;29964;17.182;-96.766;2023-04-25T11:18:41;7.33;;;4.37;;
44272;SDS011;29964;17.182;-96.766;2023-04-25T11:21:09;7.50;;;4.40;;
44272;SDS011;29964;17.182;-96.766;2023-04-25T11:23:36;6.30;;;4.20;;
44272;SDS011;29964;17.182;-96.766;2023-04-25T11:26:03;5.27;;;4.23;;
44272;SDS011;29964;17.182;-96.766;2023-04-25T11:28:30;6.03;;;4.53;;
44272;SDS011;29964;17.182;-96.766;2023-04-25T11:30:57;4.87;;;3.30;;
44272;SDS011;29964;17.182;-96.766;2023-04-25T11:33:24;9.13;;;4.87;;
44272;SDS011;29964;17.182;-96.766;2023-04-25T11:35:55;6.17;;;4.53;;
44272;SDS011;29964;17.182;-96.766;2023-04-25T11:38:22;5.43;;;4.23;;
44272;SDS011;29964;17.182;-96.766;2023-04-25T11:40:50;8.13;;;5.07;;
44272;SDS011;29964;17.182;-96.766;2023-04-25T11:43:17;6.57;;;4.70;;
44272;SDS011;29964;17.182;-96.766;2023-04-25T11:45:46;9.63;;;4.33;;
44272;SDS011;29964;17.182;-96.766;2023-04-25T11:48:13;11.80;;;6.50;;
44272;SDS011;29964;17.182;-96.766;2023-04-25T11:50:40;8.97;;;5.80;;
44272;SDS011;29964;17.182;-96.766;2023-04-25T11:53:06;7.93;;;5.33;;
44272;SDS011;29964;17.182;-96.766;2023-04-25T11:55:33;4.53;;;3.27;;
44272;SDS011;29964;17.182;-96.766;2023-04-25T11:58:01;10.20;;;5.90;;
44272;SDS011;29964;17.182;-96.766;2023-04-25T12:00:29;9.97;;;5.00;;
44272;SDS011;29964;17.182;-96.766;2023-04-25T12:02:57;4.43;;;3.67;;
44272;SDS011;29964;17.182;-96.766;2023-04-25T12:05:25;6.97;;;4.87;;
44272;SDS011;29964;17.182;-96.766;2023-04-25T12:07:52;18.43;;;4.63;;
44272;SDS011;29964;17.182;-96.766;2023-04-25T12:10:19;8.60;;;4.87;;
44272;SDS011;29964;17.182;-96.766;2023-04-25T12:12:46;6.43;;;4.80;;
44272;SDS011;29964;17.182;-96.766;2023-04-25T12:15:17;4.57;;;3.80;;
44272;SDS011;29964;17.182;-96.766;2023-04-25T12:17:47;6.27;;;3.90;;
44272;SDS011;29964;17.182;-96.766;2023-04-25T12:20:21;7.97;;;5.70;;
44272;SDS011;29964;17.182;-96.766;2023-04-25T12:22:50;6.00;;;4.10;;
44272;SDS011;29964;17.182;-96.766;2023-04-25T12:25:36;6.00;;;4.60;;
44272;SDS011;29964;17.182;-96.766;2023-04-25T12:33:18;7.93;;;5.37;;
44272;SDS011;29964;17.182;-96.766;2023-04-25T12:35:45;11.13;;;4.73;;
44272;SDS011;29964;17.182;-96.766;2023-04-25T12:38:22;6.50;;;4.20;;
44272;SDS011;29964;17.182;-96.766;2023-04-25T12:40:48;5.33;;;4.67;;
44272;SDS011;29964;17.182;-96.766;2023-04-25T12:43:15;7.80;;;4.63;;
44272;SDS011;29964;17.182;-96.766;2023-04-25T12:45:43;6.93;;;5.37;;
44272;SDS011;29964;17.182;-96.766;2023-04-25T12:48:10;7.50;;;5.17;;
44272;SDS011;29964;17.182;-96.766;2023-04-25T12:50:37;7.27;;;4.73;;
44272;SDS011;29964;17.182;-96.766;2023-04-25T12:53:04;8.50;;;5.57;;
44272;SDS011;29964;17.182;-96.766;2023-04-25T12:55:31;12.00;;;5.43;;
44272;SDS011;29964;17.182;-96.766;2023-04-25T12:57:57;6.67;;;5.20;;
44272;SDS011;29964;17.182;-96.766;2023-04-25T13:00:24;8.37;;;6.27;;
44272;SDS011;29964;17.182;-96.766;2023-04-25T13:02:52;27.00;;;6.80;;
44272;SDS011;29964;17.182;-96.766;2023-04-25T13:05:18;18.83;;;7.70;;
44272;SDS011;29964;17.182;-96.766;2023-04-25T13:07:45;8.50;;;6.43;;
44272;SDS011;29964;17.182;-96.766;2023-04-25T13:10:12;11.00;;;5.63;;
44272;SDS011;29964;17.182;-96.766;2023-04-25T13:12:39;6.30;;;5.03;;
44272;SDS011;29964;17.182;-96.766;2023-04-25T13:15:05;8.67;;;6.47;;
44272;SDS011;29964;17.182;-96.766;2023-04-25T13:17:34;8.57;;;5.67;;
44272;SDS011;29964;17.182;-96.766;2023-04-25T13:20:01;8.00;;;6.17;;
44272;SDS011;29964;17.182;-96.766;2023-04-25T13:22:30;9.07;;;6.43;;
44272;SDS011;29964;17.182;-96.766;2023-04-25T13:24:57;8.63;;;6.37;;
44272;SDS011;29964;17.182;-96.766;2023-04-25T13:27:23;18.67;;;7.17;;
44272;SDS011;29964;17.182;-96.766;2023-04-25T13:29:51;8.40;;;6.40;;
44272;SDS011;29964;17.182;-96.766;2023-04-25T13:32:17;7.97;;;6.17;;
44272;SDS011;29964;17.182;-96.766;2023-04-25T13:34:47;6.47;;;5.27;;
44272;SDS011;29964;17.182;-96.766;2023-04-25T13:37:14;8.97;;;6.00;;
44272;SDS011;29964;17.182;-96.766;2023-04-25T13:39:41;6.53;;;5.73;;
44272;SDS011;29964;17.182;-96.766;2023-04-25T13:42:07;8.27;;;6.10;;
44272;SDS011;29964;17.182;-96.766;2023-04-25T13:44:34;9.70;;;4.93;;
44272;SDS011;29964;17.182;-96.766;2023-04-25T13:47:01;8.67;;;6.03;;
44272;SDS011;29964;17.182;-96.766;2023-04-25T13:49:28;15.07;;;7.90;;
44272;SDS011;29964;17.182;-96.766;2023-04-25T13:51:54;10.70;;;7.57;;
44272;SDS011;29964;17.182;-96.766;2023-04-25T13:54:21;9.47;;;6.33;;
44272;SDS011;29964;17.182;-96.766;2023-04-25T13:56:48;7.27;;;5.47;;
44272;SDS011;29964;17.182;-96.766;2023-04-25T13:59:15;6.07;;;4.93;;
44272;SDS011;29964;17.182;-96.766;2023-04-25T14:01:42;7.67;;;5.77;;
44272;SDS011;29964;17.182;-96.766;2023-04-25T14:04:09;12.77;;;6.00;;
44272;SDS011;29964;17.182;-96.766;2023-04-25T14:06:36;7.77;;;5.67;;
44272;SDS011;29964;17.182;-96.766;2023-04-25T14:09:02;8.17;;;5.27;;
44272;SDS011;29964;17.182;-96.766;2023-04-25T14:11:29;7.90;;;5.47;;
44272;SDS011;29964;17.182;-96.766;2023-04-25T14:13:56;9.67;;;5.73;;
44272;SDS011;29964;17.182;-96.766;2023-04-25T14:16:23;5.53;;;4.10;;
44272;SDS011;29964;17.182;-96.766;2023-04-25T14:18:50;6.23;;;4.47;;
44272;SDS011;29964;17.182;-96.766;2023-04-25T14:21:16;5.00;;;4.10;;
44272;SDS011;29964;17.182;-96.766;2023-04-25T14:23:46;7.73;;;4.37;;
44272;SDS011;29964;17.182;-96.766;2023-04-25T14:26:13;3.50;;;2.90;;
44272;SDS011;29964;17.182;-96.766;2023-04-25T14:28:40;4.03;;;3.17;;
44272;SDS011;29964;17.182;-96.766;2023-04-25T14:31:07;4.80;;;3.80;;
44272;SDS011;29964;17.182;-96.766;2023-04-25T14:33:33;5.67;;;4.17;;
44272;SDS011;29964;17.182;-96.766;2023-04-25T14:36:00;5.60;;;4.07;;